Kobarid — 3FSM7 — position and weather

sailwx.info

Track history (hours):
 
Tides and Currents Weather Stations Pressure Air Temp Water Temp Dewpoint Dewpoint Depression Visibility Wind Speed Wind Dir Waves Ship Positions

Kobarid

Last reported at 2017-Nov-14 00:35 UTC. Time now 2017-Nov-21 13:43 UTC.
Position N 01°14' E 104°02'.

Length 116 m; draft 7 m.

Type: Cargo ship. MMSI: 357239000.

Date/timePositionNaut miles runAvg speedWind from/ knotsBaromVisibWave heightAir tempDewpointWater temp
2017-Nov-14 00:35N 01°14' E 104°02'110.9
2017-Nov-14 00:30N 01°14' E 104°01'510.6
2017-Nov-14 00:00N 01°13' E 103°56'5 9.8
2017-Nov-13 23:30N 01°12' E 103°52'3 6.2
2017-Nov-13 23:00N 01°12' E 103°49'5 9.4
2017-Nov-13 22:30N 01°16' E 103°46'3 6.8
2017-Nov-13 22:00N 01°18' E 103°43'0 0.0
2017-Nov-13 01:57N 01°18' E 103°43'0 0.0
2017-Nov-13 01:30N 01°18' E 103°43'0 0.0
2017-Nov-13 00:57N 01°18' E 103°43'0 0.0
2017-Nov-13 00:30N 01°18' E 103°43'0 0.0
2017-Nov-13 00:00N 01°18' E 103°43'0 0.0
2017-Nov-12 23:30N 01°18' E 103°43'0 0.0
2017-Nov-12 22:57N 01°18' E 103°43'0 0.0
2017-Nov-12 22:30N 01°18' E 103°43'0 0.0
2017-Nov-12 22:00N 01°18' E 103°43'0 0.0
2017-Nov-12 21:30N 01°18' E 103°43'0 0.0
2017-Nov-12 20:57N 01°18' E 103°43'0 0.0
2017-Nov-12 20:30N 01°18' E 103°43'0 0.0
2017-Nov-12 19:57N 01°18' E 103°43'0 0.0
2017-Nov-12 19:30N 01°18' E 103°43'0 0.0
2017-Nov-12 19:00N 01°18' E 103°43'0 0.0
2017-Nov-12 18:30N 01°18' E 103°43'0 0.0
2017-Nov-12 18:00N 01°18' E 103°43'0 0.0
2017-Nov-12 17:30N 01°18' E 103°43'0 0.0
2017-Nov-12 16:54N 01°18' E 103°43'0 0.0
2017-Nov-12 16:27N 01°18' E 103°43'0 0.0
2017-Nov-12 16:00N 01°18' E 103°43'0 0.0
2017-Nov-12 15:30N 01°18' E 103°43'0 0.0
2017-Nov-12 14:57N 01°18' E 103°43'0 0.0
2017-Nov-12 14:27N 01°18' E 103°43'0 0.0
2017-Nov-12 13:54N 01°18' E 103°43'0 0.0
2017-Nov-12 13:30N 01°18' E 103°43'0 0.0
2017-Nov-12 13:00N 01°18' E 103°43'0 0.0
2017-Nov-12 12:30N 01°18' E 103°43'0 0.0
2017-Nov-12 11:57N 01°18' E 103°43'0 0.0
2017-Nov-12 11:30N 01°18' E 103°43'0 0.0
2017-Nov-12 11:00N 01°18' E 103°43'0 0.0
2017-Nov-12 10:30N 01°18' E 103°43'0 0.0
2017-Nov-12 09:58N 01°18' E 103°43'0 0.5
2017-Nov-12 09:30N 01°18' E 103°43'0 0.4
2017-Nov-12 09:01N 01°18' E 103°43'2 4.8
2017-Nov-12 08:30N 01°16' E 103°45'3 6.7
2017-Nov-12 08:00N 01°14' E 103°48'4 7.8
2017-Nov-12 07:30N 01°13' E 103°51'3 6.6
2017-Nov-12 07:01N 01°14' E 103°54'2 3.7
2017-Nov-12 06:29N 01°15' E 103°56'3 6.4
2017-Nov-12 06:00N 01°15' E 103°59'  
2017-Nov-06 02:28N 22°40' E 120°13'0 0.1
2017-Nov-06 01:58N 22°40' E 120°13'0 0.0
2017-Nov-06 01:28N 22°40' E 120°13'0 0.0
2017-Nov-06 00:58N 22°40' E 120°13'0 0.0
2017-Nov-06 00:28N 22°40' E 120°13'0 0.0
2017-Nov-05 23:55N 22°40' E 120°13'0 0.0
2017-Nov-05 23:28N 22°40' E 120°13'0 0.0
2017-Nov-05 22:55N 22°40' E 120°13'0 0.0
2017-Nov-05 22:28N 22°40' E 120°13'0 0.0
2017-Nov-05 21:58N 22°40' E 120°13'0 0.1
2017-Nov-05 21:25N 22°40' E 120°13'0 0.0
2017-Nov-05 20:58N 22°40' E 120°13'0 0.0
2017-Nov-05 20:28N 22°40' E 120°13'0 0.0
2017-Nov-05 19:58N 22°40' E 120°13'0 0.0
2017-Nov-05 19:22N 22°40' E 120°13'0 0.0
2017-Nov-05 18:58N 22°40' E 120°13'0 0.0
2017-Nov-05 18:28N 22°40' E 120°13'0 0.0
2017-Nov-05 17:58N 22°40' E 120°13'0 0.0
2017-Nov-05 17:28N 22°40' E 120°13'0 0.0
2017-Nov-05 16:58N 22°40' E 120°13'0 0.1
2017-Nov-05 16:28N 22°40' E 120°13'0 0.0
2017-Nov-05 15:49N 22°40' E 120°13'0 0.0
2017-Nov-05 15:28N 22°40' E 120°13'0 0.0
2017-Nov-05 14:58N 22°40' E 120°13'0 0.0
2017-Nov-05 14:28N 22°40' E 120°13'0 0.0
2017-Nov-05 13:58N 22°40' E 120°13'0 0.0
2017-Nov-05 13:28N 22°40' E 120°13'0 0.0
2017-Nov-05 12:58N 22°40' E 120°13'0 0.0
2017-Nov-05 12:28N 22°40' E 120°13'0 0.1
2017-Nov-05 11:58N 22°40' E 120°13'0 0.1
2017-Nov-05 11:28N 22°40' E 120°13'0 0.1
2017-Nov-05 10:58N 22°40' E 120°13'0 0.0
2017-Nov-05 10:28N 22°40' E 120°13'0 0.0
2017-Nov-05 09:58N 22°40' E 120°13'0 0.0
2017-Nov-05 09:22N 22°40' E 120°13'0 0.0
2017-Nov-05 08:58N 22°40' E 120°13'0 0.0
2017-Nov-05 08:13N 22°40' E 120°13'0 0.1
2017-Nov-05 07:49N 22°40' E 120°13'1 1.3
2017-Nov-05 07:25N 22°39' E 120°13'2 4.9
2017-Nov-05 07:00N 22°38' E 120°14'3 5.3
2017-Nov-05 06:24N 22°37' E 120°17'0 0.1
2017-Nov-05 02:35N 22°36' E 120°18'0 0.0
2017-Nov-04 08:20N 22°36' E 120°18'0 0.0
2017-Nov-04 07:56N 22°36' E 120°18'  
Track history (hours):
 
Tides and Currents Weather Stations Pressure Air Temp Water Temp Dewpoint Dewpoint Depression Visibility Wind Speed Wind Dir Waves Ship Positions

Kobarid

Last reported at 2017-Nov-14 00:35 UTC. Time now 2017-Nov-21 13:43 UTC.
Position N 01°14' E 104°02'.

Length 116 m; draft 7 m.

Type: Cargo ship. MMSI: 357239000.

Date/timePositionNaut miles runAvg speedWind from/ knotsBaromVisibWave heightAir tempDewpointWater temp
2017-Nov-14 00:35N 01°14' E 104°02'110.9
2017-Nov-14 00:30N 01°14' E 104°01'510.6
2017-Nov-14 00:00N 01°13' E 103°56'5 9.8
2017-Nov-13 23:30N 01°12' E 103°52'3 6.2
2017-Nov-13 23:00N 01°12' E 103°49'5 9.4
2017-Nov-13 22:30N 01°16' E 103°46'3 6.8
2017-Nov-13 22:00N 01°18' E 103°43'0 0.0
2017-Nov-13 01:57N 01°18' E 103°43'0 0.0
2017-Nov-13 01:30N 01°18' E 103°43'0 0.0
2017-Nov-13 00:57N 01°18' E 103°43'0 0.0
2017-Nov-13 00:30N 01°18' E 103°43'0 0.0
2017-Nov-13 00:00N 01°18' E 103°43'0 0.0
2017-Nov-12 23:30N 01°18' E 103°43'0 0.0
2017-Nov-12 22:57N 01°18' E 103°43'0 0.0
2017-Nov-12 22:30N 01°18' E 103°43'0 0.0
2017-Nov-12 22:00N 01°18' E 103°43'0 0.0
2017-Nov-12 21:30N 01°18' E 103°43'0 0.0
2017-Nov-12 20:57N 01°18' E 103°43'0 0.0
2017-Nov-12 20:30N 01°18' E 103°43'0 0.0
2017-Nov-12 19:57N 01°18' E 103°43'0 0.0
2017-Nov-12 19:30N 01°18' E 103°43'0 0.0
2017-Nov-12 19:00N 01°18' E 103°43'0 0.0
2017-Nov-12 18:30N 01°18' E 103°43'0 0.0
2017-Nov-12 18:00N 01°18' E 103°43'0 0.0
2017-Nov-12 17:30N 01°18' E 103°43'0 0.0
2017-Nov-12 16:54N 01°18' E 103°43'0 0.0
2017-Nov-12 16:27N 01°18' E 103°43'0 0.0
2017-Nov-12 16:00N 01°18' E 103°43'0 0.0
2017-Nov-12 15:30N 01°18' E 103°43'0 0.0
2017-Nov-12 14:57N 01°18' E 103°43'0 0.0
2017-Nov-12 14:27N 01°18' E 103°43'0 0.0
2017-Nov-12 13:54N 01°18' E 103°43'0 0.0
2017-Nov-12 13:30N 01°18' E 103°43'0 0.0
2017-Nov-12 13:00N 01°18' E 103°43'0 0.0
2017-Nov-12 12:30N 01°18' E 103°43'0 0.0
2017-Nov-12 11:57N 01°18' E 103°43'0 0.0
2017-Nov-12 11:30N 01°18' E 103°43'0 0.0
2017-Nov-12 11:00N 01°18' E 103°43'0 0.0
2017-Nov-12 10:30N 01°18' E 103°43'0 0.0
2017-Nov-12 09:58N 01°18' E 103°43'0 0.5
2017-Nov-12 09:30N 01°18' E 103°43'0 0.4
2017-Nov-12 09:01N 01°18' E 103°43'2 4.8
2017-Nov-12 08:30N 01°16' E 103°45'3 6.7
2017-Nov-12 08:00N 01°14' E 103°48'4 7.8
2017-Nov-12 07:30N 01°13' E 103°51'3 6.6
2017-Nov-12 07:01N 01°14' E 103°54'2 3.7
2017-Nov-12 06:29N 01°15' E 103°56'3 6.4
2017-Nov-12 06:00N 01°15' E 103°59'  
2017-Nov-06 02:28N 22°40' E 120°13'0 0.1
2017-Nov-06 01:58N 22°40' E 120°13'0 0.0
2017-Nov-06 01:28N 22°40' E 120°13'0 0.0
2017-Nov-06 00:58N 22°40' E 120°13'0 0.0
2017-Nov-06 00:28N 22°40' E 120°13'0 0.0
2017-Nov-05 23:55N 22°40' E 120°13'0 0.0
2017-Nov-05 23:28N 22°40' E 120°13'0 0.0
2017-Nov-05 22:55N 22°40' E 120°13'0 0.0
2017-Nov-05 22:28N 22°40' E 120°13'0 0.0
2017-Nov-05 21:58N 22°40' E 120°13'0 0.1
2017-Nov-05 21:25N 22°40' E 120°13'0 0.0
2017-Nov-05 20:58N 22°40' E 120°13'0 0.0
2017-Nov-05 20:28N 22°40' E 120°13'0 0.0
2017-Nov-05 19:58N 22°40' E 120°13'0 0.0
2017-Nov-05 19:22N 22°40' E 120°13'0 0.0
2017-Nov-05 18:58N 22°40' E 120°13'0 0.0
2017-Nov-05 18:28N 22°40' E 120°13'0 0.0
2017-Nov-05 17:58N 22°40' E 120°13'0 0.0
2017-Nov-05 17:28N 22°40' E 120°13'0 0.0
2017-Nov-05 16:58N 22°40' E 120°13'0 0.1
2017-Nov-05 16:28N 22°40' E 120°13'0 0.0
2017-Nov-05 15:49N 22°40' E 120°13'0 0.0
2017-Nov-05 15:28N 22°40' E 120°13'0 0.0
2017-Nov-05 14:58N 22°40' E 120°13'0 0.0
2017-Nov-05 14:28N 22°40' E 120°13'0 0.0
2017-Nov-05 13:58N 22°40' E 120°13'0 0.0
2017-Nov-05 13:28N 22°40' E 120°13'0 0.0
2017-Nov-05 12:58N 22°40' E 120°13'0 0.0
2017-Nov-05 12:28N 22°40' E 120°13'0 0.1
2017-Nov-05 11:58N 22°40' E 120°13'0 0.1
2017-Nov-05 11:28N 22°40' E 120°13'0 0.1
2017-Nov-05 10:58N 22°40' E 120°13'0 0.0
2017-Nov-05 10:28N 22°40' E 120°13'0 0.0
2017-Nov-05 09:58N 22°40' E 120°13'0 0.0
2017-Nov-05 09:22N 22°40' E 120°13'0 0.0
2017-Nov-05 08:58N 22°40' E 120°13'0 0.0
2017-Nov-05 08:13N 22°40' E 120°13'0 0.1
2017-Nov-05 07:49N 22°40' E 120°13'1 1.3
2017-Nov-05 07:25N 22°39' E 120°13'2 4.9
2017-Nov-05 07:00N 22°38' E 120°14'3 5.3
2017-Nov-05 06:24N 22°37' E 120°17'0 0.1
2017-Nov-05 02:35N 22°36' E 120°18'0 0.0
2017-Nov-04 08:20N 22°36' E 120°18'0 0.0
2017-Nov-04 07:56N 22°36' E 120°18'  

Dump ship's entire track history